sensor_id;sensor_type;location;lat;lon;timestamp;pressure;altitude;pressure_sealevel;temperature;humidity
10948;BME280;5526;42.070;24.752;2023-04-29T00:01:35;99130.19;;;8.95;81.67
10948;BME280;5526;42.070;24.752;2023-04-29T00:04:02;99099.09;;;8.70;81.47
10948;BME280;5526;42.070;24.752;2023-04-29T00:06:29;99135.19;;;8.97;81.73
10948;BME280;5526;42.070;24.752;2023-04-29T00:08:56;99132.03;;;8.95;80.80
10948;BME280;5526;42.070;24.752;2023-04-29T00:11:23;99139.63;;;8.96;81.52
10948;BME280;5526;42.070;24.752;2023-04-29T00:13:50;99137.69;;;8.87;82.55
10948;BME280;5526;42.070;24.752;2023-04-29T00:16:17;99135.75;;;8.65;84.30
10948;BME280;5526;42.070;24.752;2023-04-29T00:18:46;99131.16;;;8.72;83.47
10948;BME280;5526;42.070;24.752;2023-04-29T00:21:13;99121.06;;;8.81;83.12
10948;BME280;5526;42.070;24.752;2023-04-29T00:23:40;99132.97;;;8.88;82.68
10948;BME280;5526;42.070;24.752;2023-04-29T00:26:07;99128.19;;;8.85;82.56
10948;BME280;5526;42.070;24.752;2023-04-29T00:28:35;99127.09;;;8.81;83.08
10948;BME280;5526;42.070;24.752;2023-04-29T00:31:02;99128.81;;;8.76;83.31
10948;BME280;5526;42.070;24.752;2023-04-29T00:33:29;99128.34;;;8.62;84.41
10948;BME280;5526;42.070;24.752;2023-04-29T00:35:57;99125.00;;;8.34;85.62
10948;BME280;5526;42.070;24.752;2023-04-29T00:38:24;99124.81;;;8.12;87.47
10948;BME280;5526;42.070;24.752;2023-04-29T00:40:51;99132.88;;;8.22;86.99
10948;BME280;5526;42.070;24.752;2023-04-29T00:43:19;99136.72;;;8.31;86.28
10948;BME280;5526;42.070;24.752;2023-04-29T00:45:46;99133.81;;;8.44;85.54
10948;BME280;5526;42.070;24.752;2023-04-29T00:48:13;99145.34;;;8.43;84.75
10948;BME280;5526;42.070;24.752;2023-04-29T00:50:40;99144.97;;;8.51;84.56
10948;BME280;5526;42.070;24.752;2023-04-29T00:53:10;99143.47;;;8.55;83.47
10948;BME280;5526;42.070;24.752;2023-04-29T00:55:38;99136.47;;;8.61;83.04
10948;BME280;5526;42.070;24.752;2023-04-29T00:58:05;99138.28;;;8.60;82.96
10948;BME280;5526;42.070;24.752;2023-04-29T01:00:32;99138.44;;;8.54;82.96
10948;BME280;5526;42.070;24.752;2023-04-29T01:02:59;99138.53;;;8.59;82.99
10948;BME280;5526;42.070;24.752;2023-04-29T01:05:26;99138.09;;;8.50;82.71
10948;BME280;5526;42.070;24.752;2023-04-29T01:08:10;99136.38;;;8.39;84.06
10948;BME280;5526;42.070;24.752;2023-04-29T01:10:44;99134.66;;;8.33;84.16
10948;BME280;5526;42.070;24.752;2023-04-29T01:13:20;99134.75;;;8.38;83.78
10948;BME280;5526;42.070;24.752;2023-04-29T01:16:00;99140.88;;;8.44;82.98
10948;BME280;5526;42.070;24.752;2023-04-29T01:18:31;99127.91;;;8.37;82.70
10948;BME280;5526;42.070;24.752;2023-04-29T01:20:59;99136.91;;;8.41;83.20
10948;BME280;5526;42.070;24.752;2023-04-29T01:23:28;99134.38;;;8.46;83.01
10948;BME280;5526;42.070;24.752;2023-04-29T01:25:56;99137.13;;;8.40;82.64
10948;BME280;5526;42.070;24.752;2023-04-29T01:28:46;99124.25;;;8.38;82.89
10948;BME280;5526;42.070;24.752;2023-04-29T01:31:18;99128.16;;;8.36;83.17
10948;BME280;5526;42.070;24.752;2023-04-29T01:34:02;99122.44;;;8.39;82.32
10948;BME280;5526;42.070;24.752;2023-04-29T01:36:41;99122.59;;;8.32;83.67
10948;BME280;5526;42.070;24.752;2023-04-29T01:39:20;99129.41;;;8.33;83.63
10948;BME280;5526;42.070;24.752;2023-04-29T01:41:55;99116.69;;;8.25;84.30
10948;BME280;5526;42.070;24.752;2023-04-29T01:44:26;99117.03;;;8.17;85.02
10948;BME280;5526;42.070;24.752;2023-04-29T01:46:54;99105.53;;;8.18;84.59
10948;BME280;5526;42.070;24.752;2023-04-29T01:49:24;99106.22;;;8.25;84.77
10948;BME280;5526;42.070;24.752;2023-04-29T01:51:51;99107.56;;;8.28;84.82
10948;BME280;5526;42.070;24.752;2023-04-29T01:54:19;99107.63;;;8.33;84.27
10948;BME280;5526;42.070;24.752;2023-04-29T01:56:46;99109.38;;;8.27;84.10
10948;BME280;5526;42.070;24.752;2023-04-29T01:59:14;99115.88;;;8.25;84.53
10948;BME280;5526;42.070;24.752;2023-04-29T02:01:41;99113.03;;;8.26;84.81
10948;BME280;5526;42.070;24.752;2023-04-29T02:04:08;99108.38;;;8.28;84.39
10948;BME280;5526;42.070;24.752;2023-04-29T02:06:35;99103.66;;;8.30;84.60
10948;BME280;5526;42.070;24.752;2023-04-29T02:09:02;99110.50;;;8.31;84.60
10948;BME280;5526;42.070;24.752;2023-04-29T02:11:30;99106.63;;;8.34;84.00
10948;BME280;5526;42.070;24.752;2023-04-29T02:13:57;99108.91;;;8.30;83.88
10948;BME280;5526;42.070;24.752;2023-04-29T02:16:24;99112.56;;;8.29;83.52
10948;BME280;5526;42.070;24.752;2023-04-29T02:18:52;99107.63;;;8.33;83.82
10948;BME280;5526;42.070;24.752;2023-04-29T02:21:19;99112.34;;;8.31;83.71
10948;BME280;5526;42.070;24.752;2023-04-29T02:23:46;99110.50;;;8.31;83.51
10948;BME280;5526;42.070;24.752;2023-04-29T02:26:13;99114.38;;;8.29;83.43
10948;BME280;5526;42.070;24.752;2023-04-29T02:28:41;99112.94;;;8.21;83.00
10948;BME280;5526;42.070;24.752;2023-04-29T02:31:08;99114.66;;;8.16;83.67
10948;BME280;5526;42.070;24.752;2023-04-29T02:33:35;99099.91;;;7.98;84.42
10948;BME280;5526;42.070;24.752;2023-04-29T02:36:03;99102.47;;;8.10;84.47
10948;BME280;5526;42.070;24.752;2023-04-29T02:38:30;99098.63;;;8.12;83.82
10948;BME280;5526;42.070;24.752;2023-04-29T02:40:57;99093.59;;;8.11;83.71
10948;BME280;5526;42.070;24.752;2023-04-29T02:43:24;99089.78;;;8.18;83.71
10948;BME280;5526;42.070;24.752;2023-04-29T02:45:56;99087.09;;;8.13;83.57
10948;BME280;5526;42.070;24.752;2023-04-29T02:48:24;99099.50;;;8.18;83.57
10948;BME280;5526;42.070;24.752;2023-04-29T02:50:51;99091.97;;;8.21;84.23
10948;BME280;5526;42.070;24.752;2023-04-29T02:53:18;99101.44;;;8.22;83.23
10948;BME280;5526;42.070;24.752;2023-04-29T02:55:46;99109.53;;;8.21;82.43
10948;BME280;5526;42.070;24.752;2023-04-29T02:58:13;99106.78;;;8.16;83.15
10948;BME280;5526;42.070;24.752;2023-04-29T03:00:40;99107.69;;;7.93;84.55
10948;BME280;5526;42.070;24.752;2023-04-29T03:03:09;99109.72;;;7.91;84.88
10948;BME280;5526;42.070;24.752;2023-04-29T03:05:36;99112.94;;;7.93;84.65
10948;BME280;5526;42.070;24.752;2023-04-29T03:08:03;99109.50;;;7.93;84.52
10948;BME280;5526;42.070;24.752;2023-04-29T03:10:30;99117.22;;;7.99;84.78
10948;BME280;5526;42.070;24.752;2023-04-29T03:12:57;99111.53;;;8.02;84.51
10948;BME280;5526;42.070;24.752;2023-04-29T03:15:24;99121.84;;;8.09;85.02
10948;BME280;5526;42.070;24.752;2023-04-29T03:17:51;99124.81;;;8.12;84.83
10948;BME280;5526;42.070;24.752;2023-04-29T03:20:20;99126.94;;;8.15;84.92
10948;BME280;5526;42.070;24.752;2023-04-29T03:22:47;99120.00;;;8.21;84.13
10948;BME280;5526;42.070;24.752;2023-04-29T03:25:14;99124.56;;;8.25;84.31
10948;BME280;5526;42.070;24.752;2023-04-29T03:27:41;99122.03;;;8.30;83.96
10948;BME280;5526;42.070;24.752;2023-04-29T03:30:08;99118.00;;;8.39;83.62
10948;BME280;5526;42.070;24.752;2023-04-29T03:32:35;99132.16;;;8.55;83.60
10948;BME280;5526;42.070;24.752;2023-04-29T03:35:03;99121.69;;;8.71;82.74
10948;BME280;5526;42.070;24.752;2023-04-29T03:37:31;99135.53;;;8.83;81.73
10948;BME280;5526;42.070;24.752;2023-04-29T03:39:58;99132.75;;;8.90;81.61
10948;BME280;5526;42.070;24.752;2023-04-29T03:42:25;99135.38;;;9.07;81.26
10948;BME280;5526;42.070;24.752;2023-04-29T03:44:52;99138.69;;;9.19;80.60
10948;BME280;5526;42.070;24.752;2023-04-29T03:47:19;99130.41;;;9.27;80.36
10948;BME280;5526;42.070;24.752;2023-04-29T03:49:46;99141.59;;;9.39;79.22
10948;BME280;5526;42.070;24.752;2023-04-29T03:52:13;99141.50;;;9.50;78.78
10948;BME280;5526;42.070;24.752;2023-04-29T03:54:42;99141.25;;;9.52;77.67
10948;BME280;5526;42.070;24.752;2023-04-29T03:57:09;99153.44;;;9.58;78.28
10948;BME280;5526;42.070;24.752;2023-04-29T03:59:36;99155.38;;;9.46;78.53
10948;BME280;5526;42.070;24.752;2023-04-29T04:02:03;99161.34;;;9.41;78.65
10948;BME280;5526;42.070;24.752;2023-04-29T04:04:30;99156.66;;;9.43;79.10
10948;BME280;5526;42.070;24.752;2023-04-29T04:06:57;99153.72;;;9.61;78.45
10948;BME280;5526;42.070;24.752;2023-04-29T04:09:25;99159.84;;;9.67;78.31
10948;BME280;5526;42.070;24.752;2023-04-29T04:11:53;99160.13;;;9.70;78.20
10948;BME280;5526;42.070;24.752;2023-04-29T04:14:20;99151.13;;;9.83;77.58
10948;BME280;5526;42.070;24.752;2023-04-29T04:16:47;99160.00;;;9.77;77.28
10948;BME280;5526;42.070;24.752;2023-04-29T04:19:15;99158.28;;;9.87;77.23
10948;BME280;5526;42.070;24.752;2023-04-29T04:21:42;99157.19;;;9.83;76.64
10948;BME280;5526;42.070;24.752;2023-04-29T04:24:09;99156.13;;;9.84;77.16
10948;BME280;5526;42.070;24.752;2023-04-29T04:26:36;99156.19;;;9.89;76.38
10948;BME280;5526;42.070;24.752;2023-04-29T04:29:05;99161.09;;;9.81;76.93
10948;BME280;5526;42.070;24.752;2023-04-29T04:31:32;99163.41;;;9.77;77.59
10948;BME280;5526;42.070;24.752;2023-04-29T04:33:59;99162.22;;;9.68;77.17
10948;BME280;5526;42.070;24.752;2023-04-29T04:36:26;99161.44;;;9.68;77.04
10948;BME280;5526;42.070;24.752;2023-04-29T04:38:53;99151.69;;;9.85;76.70
10948;BME280;5526;42.070;24.752;2023-04-29T04:41:20;99155.84;;;10.24;75.10
10948;BME280;5526;42.070;24.752;2023-04-29T04:43:47;99159.50;;;10.23;74.93
10948;BME280;5526;42.070;24.752;2023-04-29T04:46:15;99149.28;;;10.05;74.45
10948;BME280;5526;42.070;24.752;2023-04-29T04:48:42;99162.56;;;10.15;75.77
10948;BME280;5526;42.070;24.752;2023-04-29T04:51:09;99156.78;;;10.39;76.74
10948;BME280;5526;42.070;24.752;2023-04-29T04:53:38;99167.66;;;10.48;76.84
10948;BME280;5526;42.070;24.752;2023-04-29T04:56:06;99169.19;;;10.44;77.78
10948;BME280;5526;42.070;24.752;2023-04-29T04:58:33;99176.94;;;10.55;78.38
10948;BME280;5526;42.070;24.752;2023-04-29T05:01:00;99178.34;;;10.15;81.00
10948;BME280;5526;42.070;24.752;2023-04-29T05:03:28;99176.28;;;10.17;81.61
10948;BME280;5526;42.070;24.752;2023-04-29T05:05:56;99175.09;;;10.29;80.62
10948;BME280;5526;42.070;24.752;2023-04-29T05:08:24;99173.75;;;10.05;80.73
10948;BME280;5526;42.070;24.752;2023-04-29T05:10:51;99190.25;;;10.01;80.84
10948;BME280;5526;42.070;24.752;2023-04-29T05:13:19;99186.22;;;10.15;78.72
10948;BME280;5526;42.070;24.752;2023-04-29T05:15:46;99172.56;;;9.96;78.62
10948;BME280;5526;42.070;24.752;2023-04-29T05:18:13;99175.50;;;10.00;78.43
10948;BME280;5526;42.070;24.752;2023-04-29T05:20:42;99182.66;;;9.83;79.33
10948;BME280;5526;42.070;24.752;2023-04-29T05:23:09;99178.97;;;9.84;78.83
10948;BME280;5526;42.070;24.752;2023-04-29T05:25:36;99181.50;;;9.74;79.24
10948;BME280;5526;42.070;24.752;2023-04-29T05:28:03;99180.47;;;9.96;78.71
10948;BME280;5526;42.070;24.752;2023-04-29T05:30:30;99182.59;;;10.16;78.15
10948;BME280;5526;42.070;24.752;2023-04-29T05:32:58;99169.59;;;10.09;78.04
10948;BME280;5526;42.070;24.752;2023-04-29T05:35:25;99167.91;;;10.20;77.59
10948;BME280;5526;42.070;24.752;2023-04-29T05:37:53;99163.28;;;10.32;76.26
10948;BME280;5526;42.070;24.752;2023-04-29T05:40:20;99154.22;;;10.23;77.15
10948;BME280;5526;42.070;24.752;2023-04-29T05:42:48;99150.38;;;10.30;77.05
10948;BME280;5526;42.070;24.752;2023-04-29T05:45:16;99154.47;;;10.74;76.08
10948;BME280;5526;42.070;24.752;2023-04-29T05:47:43;99154.97;;;10.98;74.68
10948;BME280;5526;42.070;24.752;2023-04-29T05:50:10;99142.94;;;11.12;74.43
10948;BME280;5526;42.070;24.752;2023-04-29T05:52:37;99140.53;;;11.52;73.32
10948;BME280;5526;42.070;24.752;2023-04-29T05:55:06;99144.66;;;11.74;73.24
10948;BME280;5526;42.070;24.752;2023-04-29T05:57:33;99146.38;;;12.15;72.49
10948;BME280;5526;42.070;24.752;2023-04-29T06:00:00;99130.66;;;12.65;70.58
10948;BME280;5526;42.070;24.752;2023-04-29T06:02:28;99142.56;;;13.08;69.05
10948;BME280;5526;42.070;24.752;2023-04-29T06:04:55;99139.94;;;12.98;69.01
10948;BME280;5526;42.070;24.752;2023-04-29T06:07:23;99144.66;;;13.41;67.37
10948;BME280;5526;42.070;24.752;2023-04-29T06:09:51;99142.53;;;13.33;67.40
10948;BME280;5526;42.070;24.752;2023-04-29T06:12:20;99141.97;;;13.51;66.52
10948;BME280;5526;42.070;24.752;2023-04-29T06:14:47;99135.69;;;14.01;64.69
10948;BME280;5526;42.070;24.752;2023-04-29T06:17:15;99135.84;;;14.34;63.47
10948;BME280;5526;42.070;24.752;2023-04-29T06:19:42;99128.94;;;14.38;62.23
10948;BME280;5526;42.070;24.752;2023-04-29T06:22:09;99135.09;;;14.67;60.53
10948;BME280;5526;42.070;24.752;2023-04-29T06:24:36;99127.56;;;14.46;60.97
10948;BME280;5526;42.070;24.752;2023-04-29T06:27:03;99136.69;;;14.97;58.83
10948;BME280;5526;42.070;24.752;2023-04-29T06:29:31;99129.25;;;14.65;59.38
10948;BME280;5526;42.070;24.752;2023-04-29T06:31:58;99131.06;;;14.36;58.45
10948;BME280;5526;42.070;24.752;2023-04-29T06:34:25;99131.44;;;14.58;57.65
10948;BME280;5526;42.070;24.752;2023-04-29T06:36:53;99130.91;;;14.56;56.88
10948;BME280;5526;42.070;24.752;2023-04-29T06:39:20;99126.16;;;14.53;56.40
10948;BME280;5526;42.070;24.752;2023-04-29T06:41:47;99131.63;;;14.18;57.21
10948;BME280;5526;42.070;24.752;2023-04-29T06:44:13;99132.22;;;14.15;58.64
10948;BME280;5526;42.070;24.752;2023-04-29T06:46:42;99129.13;;;14.47;57.36
10948;BME280;5526;42.070;24.752;2023-04-29T06:49:09;99126.00;;;14.73;56.85
10948;BME280;5526;42.070;24.752;2023-04-29T06:51:37;99119.22;;;14.96;56.38
10948;BME280;5526;42.070;24.752;2023-04-29T06:54:04;99126.44;;;14.90;56.13
10948;BME280;5526;42.070;24.752;2023-04-29T06:56:31;99121.53;;;15.02;55.95
10948;BME280;5526;42.070;24.752;2023-04-29T06:58:58;99113.13;;;14.95;56.45
10948;BME280;5526;42.070;24.752;2023-04-29T07:01:25;99107.19;;;14.75;56.65
10948;BME280;5526;42.070;24.752;2023-04-29T07:03:54;99104.69;;;14.93;54.90
10948;BME280;5526;42.070;24.752;2023-04-29T07:06:21;99107.03;;;14.95;55.35
10948;BME280;5526;42.070;24.752;2023-04-29T07:08:48;99098.59;;;15.16;54.27
10948;BME280;5526;42.070;24.752;2023-04-29T07:11:16;99091.50;;;15.40;53.77
10948;BME280;5526;42.070;24.752;2023-04-29T07:13:52;99095.50;;;16.03;50.81
10948;BME280;5526;42.070;24.752;2023-04-29T07:16:20;99092.22;;;16.11;51.28
10948;BME280;5526;42.070;24.752;2023-04-29T07:18:51;99087.69;;;16.30;50.09
10948;BME280;5526;42.070;24.752;2023-04-29T07:21:20;99086.53;;;16.36;49.14
10948;BME280;5526;42.070;24.752;2023-04-29T07:23:47;99091.88;;;16.87;48.46
10948;BME280;5526;42.070;24.752;2023-04-29T07:26:15;99082.59;;;16.52;47.61
10948;BME280;5526;42.070;24.752;2023-04-29T07:28:43;99096.66;;;17.17;46.75
10948;BME280;5526;42.070;24.752;2023-04-29T07:31:10;99090.63;;;17.44;45.99
10948;BME280;5526;42.070;24.752;2023-04-29T07:33:38;99089.97;;;18.01;44.65
10948;BME280;5526;42.070;24.752;2023-04-29T07:36:06;99087.56;;;17.91;44.50
10948;BME280;5526;42.070;24.752;2023-04-29T07:38:35;99080.16;;;17.61;45.04
10948;BME280;5526;42.070;24.752;2023-04-29T07:41:02;99081.59;;;17.94;44.66
10948;BME280;5526;42.070;24.752;2023-04-29T07:43:29;99092.59;;;18.28;43.83
10948;BME280;5526;42.070;24.752;2023-04-29T07:45:56;99088.72;;;18.47;43.60
10948;BME280;5526;42.070;24.752;2023-04-29T07:48:24;99086.34;;;18.46;42.61
10948;BME280;5526;42.070;24.752;2023-04-29T07:50:51;99065.50;;;18.70;41.69
10948;BME280;5526;42.070;24.752;2023-04-29T07:53:19;99075.28;;;19.05;41.79
10948;BME280;5526;42.070;24.752;2023-04-29T07:55:47;99086.09;;;18.78;42.47
10948;BME280;5526;42.070;24.752;2023-04-29T07:58:15;99074.03;;;18.80;41.65
10948;BME280;5526;42.070;24.752;2023-04-29T08:00:42;99068.03;;;18.75;41.87
10948;BME280;5526;42.070;24.752;2023-04-29T08:03:09;99064.97;;;18.59;42.27
10948;BME280;5526;42.070;24.752;2023-04-29T08:05:36;99071.44;;;18.67;42.17
10948;BME280;5526;42.070;24.752;2023-04-29T08:08:04;99072.56;;;18.17;42.69
10948;BME280;5526;42.070;24.752;2023-04-29T08:10:32;99063.09;;;17.75;43.33
10948;BME280;5526;42.070;24.752;2023-04-29T08:13:06;99049.56;;;17.99;42.94
10948;BME280;5526;42.070;24.752;2023-04-29T08:15:34;99061.06;;;18.08;42.11
10948;BME280;5526;42.070;24.752;2023-04-29T08:18:01;99062.03;;;18.12;42.38
10948;BME280;5526;42.070;24.752;2023-04-29T08:20:28;99061.13;;;18.30;42.14
10948;BME280;5526;42.070;24.752;2023-04-29T08:22:57;99050.47;;;18.74;41.00
10948;BME280;5526;42.070;24.752;2023-04-29T08:25:24;99048.13;;;19.42;41.02
10948;BME280;5526;42.070;24.752;2023-04-29T08:27:53;99045.41;;;19.72;39.39
10948;BME280;5526;42.070;24.752;2023-04-29T08:30:22;99041.97;;;19.89;38.46
10948;BME280;5526;42.070;24.752;2023-04-29T08:32:49;99036.22;;;20.12;38.71
10948;BME280;5526;42.070;24.752;2023-04-29T08:35:16;99033.19;;;19.88;38.49
10948;BME280;5526;42.070;24.752;2023-04-29T08:37:43;99037.72;;;19.88;38.96
10948;BME280;5526;42.070;24.752;2023-04-29T08:40:12;99028.97;;;20.21;38.08
10948;BME280;5526;42.070;24.752;2023-04-29T08:42:39;99032.91;;;20.15;38.41
10948;BME280;5526;42.070;24.752;2023-04-29T08:45:08;99025.47;;;20.55;37.86
10948;BME280;5526;42.070;24.752;2023-04-29T08:47:36;99027.84;;;20.48;37.50
10948;BME280;5526;42.070;24.752;2023-04-29T08:50:05;99031.63;;;20.13;38.19
10948;BME280;5526;42.070;24.752;2023-04-29T08:52:33;99017.28;;;20.68;37.83
10948;BME280;5526;42.070;24.752;2023-04-29T08:55:00;99018.06;;;21.24;36.87
10948;BME280;5526;42.070;24.752;2023-04-29T08:57:29;99013.94;;;20.97;36.83
10948;BME280;5526;42.070;24.752;2023-04-29T09:00:05;99007.91;;;20.37;37.97
10948;BME280;5526;42.070;24.752;2023-04-29T09:02:44;99011.66;;;19.93;37.65
10948;BME280;5526;42.070;24.752;2023-04-29T09:05:13;99011.66;;;20.02;38.59
10948;BME280;5526;42.070;24.752;2023-04-29T09:07:41;99002.53;;;20.03;38.13
10948;BME280;5526;42.070;24.752;2023-04-29T09:10:08;98999.25;;;20.31;38.07
10948;BME280;5526;42.070;24.752;2023-04-29T09:12:36;98997.19;;;20.54;38.17
10948;BME280;5526;42.070;24.752;2023-04-29T09:15:04;98997.63;;;20.56;38.20
10948;BME280;5526;42.070;24.752;2023-04-29T09:17:41;98997.75;;;20.68;35.84
10948;BME280;5526;42.070;24.752;2023-04-29T09:20:27;98994.63;;;20.66;35.70
10948;BME280;5526;42.070;24.752;2023-04-29T09:22:56;98986.19;;;20.47;37.16
10948;BME280;5526;42.070;24.752;2023-04-29T09:25:23;98982.19;;;20.70;36.69
10948;BME280;5526;42.070;24.752;2023-04-29T09:27:52;98976.34;;;20.76;35.82
10948;BME280;5526;42.070;24.752;2023-04-29T09:30:19;98971.63;;;20.73;36.40
10948;BME280;5526;42.070;24.752;2023-04-29T09:33:06;98974.53;;;21.06;34.68
10948;BME280;5526;42.070;24.752;2023-04-29T09:35:33;98964.81;;;21.02;35.25
10948;BME280;5526;42.070;24.752;2023-04-29T09:38:11;98966.06;;;20.96;35.48
10948;BME280;5526;42.070;24.752;2023-04-29T09:40:39;98960.03;;;20.61;35.53
10948;BME280;5526;42.070;24.752;2023-04-29T09:43:12;98953.31;;;21.01;33.78
10948;BME280;5526;42.070;24.752;2023-04-29T09:45:41;98952.53;;;21.30;33.16
10948;BME280;5526;42.070;24.752;2023-04-29T09:48:11;98952.16;;;21.60;32.04
10948;BME280;5526;42.070;24.752;2023-04-29T09:50:40;98956.06;;;21.71;32.08
10948;BME280;5526;42.070;24.752;2023-04-29T09:53:09;98948.72;;;22.33;31.98
10948;BME280;5526;42.070;24.752;2023-04-29T09:55:57;98942.78;;;22.28;31.21
10948;BME280;5526;42.070;24.752;2023-04-29T09:58:27;98949.59;;;22.25;31.54
10948;BME280;5526;42.070;24.752;2023-04-29T10:00:57;98943.59;;;22.40;31.48
10948;BME280;5526;42.070;24.752;2023-04-29T10:03:31;98935.19;;;22.74;30.83
10948;BME280;5526;42.070;24.752;2023-04-29T10:06:00;98927.44;;;22.49;30.20
10948;BME280;5526;42.070;24.752;2023-04-29T10:08:29;98919.16;;;22.09;30.36
10948;BME280;5526;42.070;24.752;2023-04-29T10:10:59;98922.78;;;22.25;29.82
10948;BME280;5526;42.070;24.752;2023-04-29T10:13:27;98908.53;;;22.01;30.33
10948;BME280;5526;42.070;24.752;2023-04-29T10:15:59;98918.75;;;22.19;29.09
10948;BME280;5526;42.070;24.752;2023-04-29T10:18:34;98911.88;;;21.77;30.36
10948;BME280;5526;42.070;24.752;2023-04-29T10:21:06;98910.16;;;21.52;29.75
10948;BME280;5526;42.070;24.752;2023-04-29T10:23:35;98906.84;;;21.55;29.82
10948;BME280;5526;42.070;24.752;2023-04-29T10:26:02;98895.16;;;21.80;29.38
10948;BME280;5526;42.070;24.752;2023-04-29T10:28:30;98894.94;;;22.18;29.79
10948;BME280;5526;42.070;24.752;2023-04-29T10:31:00;98904.53;;;22.19;29.47
10948;BME280;5526;42.070;24.752;2023-04-29T10:33:30;98890.63;;;22.25;29.53
10948;BME280;5526;42.070;24.752;2023-04-29T10:36:00;98900.34;;;21.97;29.13
10948;BME280;5526;42.070;24.752;2023-04-29T10:38:31;98897.22;;;21.95;28.96
10948;BME280;5526;42.070;24.752;2023-04-29T10:41:03;98894.50;;;21.83;29.03
10948;BME280;5526;42.070;24.752;2023-04-29T10:43:35;98897.59;;;22.06;29.18
10948;BME280;5526;42.070;24.752;2023-04-29T10:46:18;98884.13;;;21.12;28.35
10948;BME280;5526;42.070;24.752;2023-04-29T10:48:47;98888.59;;;21.69;29.79
10948;BME280;5526;42.070;24.752;2023-04-29T10:51:29;98878.06;;;21.64;29.74
10948;BME280;5526;42.070;24.752;2023-04-29T10:54:02;98888.88;;;21.76;30.17
10948;BME280;5526;42.070;24.752;2023-04-29T10:56:40;98868.78;;;22.15;29.61
10948;BME280;5526;42.070;24.752;2023-04-29T10:59:12;98882.97;;;22.60;29.68
10948;BME280;5526;42.070;24.752;2023-04-29T11:01:42;98874.34;;;23.02;28.71
10948;BME280;5526;42.070;24.752;2023-04-29T11:04:09;98873.44;;;23.10;28.63
10948;BME280;5526;42.070;24.752;2023-04-29T11:06:44;98860.97;;;22.78;26.93
10948;BME280;5526;42.070;24.752;2023-04-29T11:09:14;98856.94;;;22.72;28.91
10948;BME280;5526;42.070;24.752;2023-04-29T11:12:00;98850.09;;;23.11;28.54
10948;BME280;5526;42.070;24.752;2023-04-29T11:14:30;98843.75;;;22.91;28.78
10948;BME280;5526;42.070;24.752;2023-04-29T11:16:59;98849.44;;;23.02;28.65
10948;BME280;5526;42.070;24.752;2023-04-29T11:19:31;98843.31;;;22.77;27.81
10948;BME280;5526;42.070;24.752;2023-04-29T11:22:27;98843.47;;;23.32;27.63
10948;BME280;5526;42.070;24.752;2023-04-29T11:24:56;98832.00;;;23.47;28.06
10948;BME280;5526;42.070;24.752;2023-04-29T11:27:26;98828.53;;;24.17;27.39
10948;BME280;5526;42.070;24.752;2023-04-29T11:29:56;98813.53;;;24.01;26.99
10948;BME280;5526;42.070;24.752;2023-04-29T11:32:27;98816.31;;;24.35;26.65
10948;BME280;5526;42.070;24.752;2023-04-29T11:34:56;98816.03;;;23.94;26.05
10948;BME280;5526;42.070;24.752;2023-04-29T11:37:34;98813.00;;;24.26;25.39
10948;BME280;5526;42.070;24.752;2023-04-29T11:40:02;98811.25;;;24.34;25.93
10948;BME280;5526;42.070;24.752;2023-04-29T11:42:29;98810.75;;;24.60;25.79
10948;BME280;5526;42.070;24.752;2023-04-29T11:44:56;98802.88;;;24.20;26.53
10948;BME280;5526;42.070;24.752;2023-04-29T11:47:26;98798.06;;;23.98;25.88
10948;BME280;5526;42.070;24.752;2023-04-29T11:50:01;98802.28;;;23.83;25.48
10948;BME280;5526;42.070;24.752;2023-04-29T11:52:29;98802.53;;;23.78;25.81
10948;BME280;5526;42.070;24.752;2023-04-29T11:54:58;98805.47;;;23.46;25.79
10948;BME280;5526;42.070;24.752;2023-04-29T11:57:25;98800.50;;;23.32;26.16
10948;BME280;5526;42.070;24.752;2023-04-29T11:59:53;98791.00;;;23.78;25.99
10948;BME280;5526;42.070;24.752;2023-04-29T12:02:21;98781.41;;;23.92;26.04
10948;BME280;5526;42.070;24.752;2023-04-29T12:04:48;98782.28;;;23.96;25.66
10948;BME280;5526;42.070;24.752;2023-04-29T12:07:16;98774.88;;;23.78;25.85
10948;BME280;5526;42.070;24.752;2023-04-29T12:09:43;98773.81;;;23.67;25.27
10948;BME280;5526;42.070;24.752;2023-04-29T12:12:13;98764.00;;;23.59;25.32
10948;BME280;5526;42.070;24.752;2023-04-29T12:14:41;98756.66;;;23.71;25.34
10948;BME280;5526;42.070;24.752;2023-04-29T12:17:09;98763.84;;;23.67;25.12
10948;BME280;5526;42.070;24.752;2023-04-29T12:19:38;98754.13;;;23.63;24.80
10948;BME280;5526;42.070;24.752;2023-04-29T12:22:06;98754.56;;;23.80;24.74
10948;BME280;5526;42.070;24.752;2023-04-29T12:24:34;98748.09;;;23.81;24.57
10948;BME280;5526;42.070;24.752;2023-04-29T12:27:02;98745.78;;;23.52;24.74
10948;BME280;5526;42.070;24.752;2023-04-29T12:29:32;98741.84;;;23.77;24.56
10948;BME280;5526;42.070;24.752;2023-04-29T12:31:59;98742.41;;;23.98;25.40
10948;BME280;5526;42.070;24.752;2023-04-29T12:34:28;98741.88;;;24.24;24.89
10948;BME280;5526;42.070;24.752;2023-04-29T12:36:56;98737.28;;;24.09;24.79
10948;BME280;5526;42.070;24.752;2023-04-29T12:39:24;98736.88;;;24.07;24.88
10948;BME280;5526;42.070;24.752;2023-04-29T12:41:54;98743.09;;;23.95;24.29
10948;BME280;5526;42.070;24.752;2023-04-29T12:44:22;98733.34;;;23.91;24.64
10948;BME280;5526;42.070;24.752;2023-04-29T12:46:51;98741.63;;;23.98;24.79
10948;BME280;5526;42.070;24.752;2023-04-29T12:49:18;98736.41;;;24.20;25.05
10948;BME280;5526;42.070;24.752;2023-04-29T12:51:46;98722.97;;;24.71;24.32
10948;BME280;5526;42.070;24.752;2023-04-29T12:54:13;98733.19;;;24.81;24.38
10948;BME280;5526;42.070;24.752;2023-04-29T12:56:40;98722.03;;;24.63;24.91
10948;BME280;5526;42.070;24.752;2023-04-29T12:59:08;98711.94;;;24.95;24.22
10948;BME280;5526;42.070;24.752;2023-04-29T13:01:36;98711.88;;;25.10;24.33
10948;BME280;5526;42.070;24.752;2023-04-29T13:04:05;98711.56;;;24.77;23.81
10948;BME280;5526;42.070;24.752;2023-04-29T13:06:33;98703.13;;;24.44;24.37
10948;BME280;5526;42.070;24.752;2023-04-29T13:09:05;98701.06;;;24.37;24.79
10948;BME280;5526;42.070;24.752;2023-04-29T13:11:32;98706.56;;;24.60;24.42
10948;BME280;5526;42.070;24.752;2023-04-29T13:13:59;98700.78;;;24.42;24.43